createdAt,value
2019-05-07T00:03:25.664Z,6.80
2019-05-07T00:08:28.128Z,6.68
2019-05-07T00:13:30.590Z,6.59
2019-05-07T00:18:33.045Z,6.51
2019-05-07T00:23:35.498Z,6.42
2019-05-07T00:28:37.967Z,6.34
2019-05-07T00:33:40.427Z,6.26
2019-05-07T00:38:42.875Z,6.13
2019-05-07T00:43:45.341Z,6.24
2019-05-07T00:48:47.807Z,6.08
2019-05-07T00:53:52.051Z,6.11
2019-05-07T00:58:52.944Z,6.21
2019-05-07T01:03:55.164Z,6.07
2019-05-07T01:08:57.608Z,6.16
2019-05-07T01:14:00.080Z,6.17
2019-05-07T01:19:02.548Z,6.12
2019-05-07T01:24:05.001Z,6.21
2019-05-07T01:29:07.453Z,6.08
2019-05-07T01:34:12.047Z,6.13
2019-05-07T01:39:13.118Z,6.20
2019-05-07T01:44:14.818Z,6.17
2019-05-07T01:49:17.269Z,5.95
2019-05-07T01:54:23.532Z,6.02
2019-05-07T01:59:22.627Z,5.82
2019-05-07T02:04:33.329Z,5.91
2019-05-07T02:09:38.547Z,5.83
2019-05-07T02:14:42.265Z,5.68
2019-05-07T02:19:43.457Z,5.64
2019-05-07T02:24:45.918Z,5.46
2019-05-07T02:29:48.364Z,5.39
2019-05-07T02:34:54.173Z,5.39
2019-05-07T02:39:56.097Z,5.25
2019-05-07T02:45:16.844Z,5.11
2019-05-07T02:50:28.297Z,5.14
2019-05-07T02:55:33.431Z,5.16
2019-05-07T03:00:33.559Z,4.94
2019-05-07T03:05:35.667Z,4.90
2019-05-07T03:10:38.227Z,5.14
2019-05-07T03:15:43.226Z,5.13
2019-05-07T03:20:53.533Z,4.91
2019-05-07T03:25:57.422Z,4.81
2019-05-07T03:31:18.514Z,4.71
2019-05-07T03:36:25.820Z,4.75
2019-05-07T03:41:23.389Z,4.69
2019-05-07T03:46:25.849Z,4.63
2019-05-07T03:51:28.303Z,4.55
2019-05-07T03:56:33.024Z,4.67
2019-05-07T04:01:33.587Z,4.49
2019-05-07T04:06:35.738Z,4.60
2019-05-07T04:11:38.187Z,4.78
2019-05-07T04:16:43.878Z,4.78
2019-05-07T04:21:43.582Z,4.97
2019-05-07T04:27:03.935Z,5.22
2019-05-07T04:32:06.395Z,5.57
2019-05-07T04:37:08.833Z,5.81
2019-05-07T04:42:13.256Z,5.93
2019-05-07T04:47:32.324Z,6.00
2019-05-07T04:52:25.303Z,6.13
2019-05-07T04:57:27.774Z,6.37
2019-05-07T05:02:45.531Z,6.66
2019-05-07T05:07:47.983Z,7.05
2019-05-07T05:12:53.376Z,7.50
2019-05-07T05:17:54.054Z,7.78
2019-05-07T05:22:55.523Z,8.16
2019-05-07T05:27:57.985Z,8.24
2019-05-07T05:33:02.214Z,8.21
2019-05-07T05:38:03.148Z,8.28
2019-05-07T05:43:12.719Z,8.88
2019-05-07T05:48:13.901Z,9.20
2019-05-07T05:53:34.469Z,10.08
2019-05-07T05:58:49.229Z,10.61
2019-05-07T06:04:12.330Z,11.99
2019-05-07T06:09:32.797Z,12.26
2019-05-07T06:14:33.510Z,12.64
2019-05-07T06:19:38.667Z,12.75
2019-05-07T06:24:44.229Z,13.28
2019-05-07T06:29:46.685Z,13.25
2019-05-07T06:34:49.143Z,13.03
2019-05-07T06:40:09.585Z,13.34
2019-05-07T06:45:18.199Z,13.46
2019-05-07T06:50:22.071Z,14.53
2019-05-07T06:55:23.127Z,14.98
2019-05-07T07:00:25.584Z,15.95
2019-05-07T07:05:33.000Z,16.00
2019-05-07T07:10:52.260Z,16.38
2019-05-07T07:15:54.123Z,17.01
2019-05-07T07:20:56.576Z,16.47
2019-05-07T07:26:05.038Z,17.05
2019-05-07T07:31:13.364Z,17.10
2019-05-07T07:36:15.830Z,16.79
2019-05-07T07:41:18.291Z,17.09
2019-05-07T07:46:22.153Z,17.55
2019-05-07T07:51:37.235Z,18.79
2019-05-07T07:56:52.639Z,18.52
2019-05-07T08:01:49.442Z,18.86
2019-05-07T08:07:04.107Z,19.48
2019-05-07T08:12:06.815Z,20.72
2019-05-07T08:17:09.170Z,21.93
2019-05-07T08:22:12.122Z,22.67
2019-05-07T08:27:15.266Z,23.82
2019-05-07T08:32:22.119Z,27.49
2019-05-07T08:37:24.297Z,36.46
2019-05-07T08:42:24.640Z,38.29
2019-05-07T08:47:36.141Z,39.06
2019-05-07T08:52:38.609Z,41.29
2019-05-07T08:57:42.046Z,43.18
2019-05-07T09:02:43.531Z,43.53
2019-05-07T09:07:45.993Z,40.72
2019-05-07T09:12:48.468Z,42.15
2019-05-07T09:17:52.681Z,43.13
2019-05-07T09:22:53.378Z,45.49
2019-05-07T09:27:55.846Z,44.63
2019-05-07T09:32:58.363Z,44.56
2019-05-07T09:38:03.022Z,47.73
2019-05-07T09:43:03.294Z,48.27
2019-05-07T09:48:05.729Z,45.12
2019-05-07T09:53:08.195Z,44.45
2019-05-07T09:58:12.588Z,48.20
2019-05-07T10:03:13.119Z,50.88
2019-05-07T10:08:15.588Z,41.93
2019-05-07T10:13:18.042Z,40.03
2019-05-07T10:18:22.700Z,32.28
2019-05-07T10:23:23.391Z,28.88
2019-05-07T10:28:25.458Z,30.37
2019-05-07T10:33:27.936Z,28.32
2019-05-07T10:38:30.397Z,28.42
2019-05-07T10:43:32.965Z,26.74
2019-05-07T10:48:38.390Z,25.38
2019-05-07T10:53:42.423Z,24.92
2019-05-07T10:58:43.355Z,23.44
2019-05-07T11:03:45.812Z,23.40
2019-05-07T11:08:48.379Z,23.36
2019-05-07T11:13:55.334Z,22.79
2019-05-07T11:18:53.303Z,21.77
2019-05-07T11:23:55.891Z,23.02
2019-05-07T11:28:58.296Z,23.52
2019-05-07T11:34:02.802Z,25.13
2019-05-07T11:39:03.225Z,25.06
2019-05-07T11:44:05.685Z,24.92
2019-05-07T11:49:17.389Z,24.39
2019-05-07T11:54:19.860Z,23.11
2019-05-07T11:59:29.349Z,22.82
2019-05-07T12:04:32.072Z,23.46
2019-05-07T12:09:34.292Z,27.12
2019-05-07T12:14:36.754Z,35.26
2019-05-07T12:19:39.211Z,32.04
2019-05-07T12:24:41.943Z,26.13
2019-05-07T12:29:44.129Z,26.33
2019-05-07T12:34:46.593Z,26.86
2019-05-07T12:39:49.038Z,29.60
2019-05-07T12:44:51.805Z,28.97
2019-05-07T12:49:53.949Z,26.79
2019-05-07T12:54:56.415Z,25.51
2019-05-07T12:59:59.022Z,24.53
2019-05-07T13:05:02.923Z,23.89
2019-05-07T13:10:03.987Z,23.37
2019-05-07T13:15:06.462Z,21.57
2019-05-07T13:20:08.919Z,22.45
2019-05-07T13:25:11.380Z,22.08
2019-05-07T13:30:13.848Z,21.96
2019-05-07T13:35:16.315Z,22.31
2019-05-07T13:40:21.456Z,21.98
2019-05-07T13:45:44.516Z,22.45
2019-05-07T13:50:44.636Z,21.47
2019-05-07T13:55:47.093Z,22.52
2019-05-07T14:00:52.513Z,21.92
2019-05-07T14:05:54.974Z,21.52
2019-05-07T14:10:57.429Z,20.16
2019-05-07T14:16:06.108Z,19.61
2019-05-07T14:21:08.570Z,19.81
2019-05-07T14:26:11.023Z,19.46
2019-05-07T14:31:13.495Z,19.53
2019-05-07T14:36:15.971Z,19.76
2019-05-07T14:41:18.425Z,20.31
2019-05-07T14:46:20.895Z,20.16
2019-05-07T14:51:23.370Z,20.05
2019-05-07T14:56:25.832Z,19.24
2019-05-07T15:01:28.315Z,19.14
2019-05-07T15:06:32.561Z,18.80
2019-05-07T15:11:33.287Z,18.75
2019-05-07T15:16:35.703Z,18.88
2019-05-07T15:21:38.296Z,18.85
2019-05-07T15:26:41.952Z,18.21
2019-05-07T15:31:55.522Z,18.16
2019-05-07T15:36:57.989Z,17.91
2019-05-07T15:42:02.243Z,17.56
2019-05-07T15:47:02.921Z,17.88
2019-05-07T15:52:05.423Z,17.78
2019-05-07T15:57:07.857Z,17.76
2019-05-07T16:02:12.263Z,17.42
2019-05-07T16:07:13.250Z,17.28
2019-05-07T16:12:15.277Z,17.24
2019-05-07T16:17:24.546Z,17.38
2019-05-07T16:22:29.149Z,17.30
2019-05-07T16:27:31.814Z,17.24
2019-05-07T16:32:34.088Z,17.16
2019-05-07T16:37:36.568Z,17.11
2019-05-07T16:42:39.039Z,17.05
2019-05-07T16:47:41.506Z,16.79
2019-05-07T16:52:43.987Z,16.60
2019-05-07T16:57:55.443Z,16.39
2019-05-07T17:02:57.922Z,16.31
2019-05-07T17:08:02.260Z,16.18
2019-05-07T17:13:02.978Z,16.14
2019-05-07T17:18:05.321Z,16.06
2019-05-07T17:23:07.782Z,16.07
2019-05-07T17:28:12.478Z,16.00
2019-05-07T17:33:13.011Z,15.96
2019-05-07T17:38:15.202Z,15.85
2019-05-07T17:43:17.660Z,15.74
2019-05-07T17:48:20.137Z,15.64
2019-05-07T17:53:22.658Z,15.51
2019-05-07T17:58:25.065Z,15.38
2019-05-07T18:03:33.456Z,15.29
2019-05-07T18:08:35.986Z,15.14
2019-05-07T18:13:38.439Z,14.92
2019-05-07T18:18:43.078Z,14.68
2019-05-07T18:23:43.485Z,14.57
2019-05-07T18:28:45.857Z,14.42
2019-05-07T18:33:48.433Z,14.31
2019-05-07T18:38:52.774Z,14.06
2019-05-07T18:43:54.706Z,13.96
2019-05-07T18:48:55.847Z,13.86
2019-05-07T18:53:58.395Z,13.81
2019-05-07T18:59:02.102Z,13.66
2019-05-07T19:04:03.246Z,13.45
2019-05-07T19:09:05.730Z,13.33
2019-05-07T19:14:08.257Z,13.18
2019-05-07T19:19:12.487Z,13.07
2019-05-07T19:24:13.201Z,13.03
2019-05-07T19:29:15.661Z,13.00
2019-05-07T19:34:18.137Z,12.81
2019-05-07T19:39:20.655Z,12.54
2019-05-07T19:44:23.125Z,12.26
2019-05-07T19:49:25.595Z,12.14
2019-05-07T19:54:28.102Z,12.11
2019-05-07T19:59:32.578Z,11.87
2019-05-07T20:04:33.211Z,11.79
2019-05-07T20:09:35.682Z,11.73
2019-05-07T20:14:38.153Z,11.55
2019-05-07T20:19:41.762Z,11.40
2019-05-07T20:24:43.105Z,11.43
2019-05-07T20:29:45.562Z,11.23
2019-05-07T20:34:48.059Z,11.28
2019-05-07T20:39:52.396Z,11.09
2019-05-07T20:44:53.031Z,11.06
2019-05-07T20:49:55.519Z,10.97
2019-05-07T20:55:04.136Z,10.92
2019-05-07T21:00:06.604Z,10.79
2019-05-07T21:05:09.077Z,10.87
2019-05-07T21:10:12.654Z,10.99
2019-05-07T21:15:14.031Z,11.35
2019-05-07T21:20:16.485Z,11.66
2019-05-07T21:25:18.959Z,11.80
2019-05-07T21:30:22.322Z,11.83
2019-05-07T21:35:23.945Z,11.98
2019-05-07T21:40:26.327Z,11.94
2019-05-07T21:45:28.803Z,11.90
2019-05-07T21:50:31.260Z,11.84
2019-05-07T21:55:36.660Z,11.80
2019-05-07T22:00:39.113Z,11.85
2019-05-07T22:05:44.106Z,11.84
2019-05-07T22:10:44.050Z,11.82
2019-05-07T22:15:46.510Z,11.82
2019-05-07T22:20:48.976Z,11.71
2019-05-07T22:25:51.576Z,11.70
2019-05-07T22:30:54.034Z,11.66
2019-05-07T22:36:01.762Z,11.60
2019-05-07T22:41:02.129Z,11.43
2019-05-07T22:46:03.042Z,11.25
2019-05-07T22:51:05.510Z,11.23
2019-05-07T22:56:07.989Z,11.21
2019-05-07T23:01:13.237Z,11.31
2019-05-07T23:06:15.641Z,11.38
2019-05-07T23:11:18.098Z,11.33
2019-05-07T23:16:22.941Z,11.30
2019-05-07T23:21:24.661Z,11.23
2019-05-07T23:26:25.469Z,11.21
2019-05-07T23:31:27.927Z,11.14
2019-05-07T23:36:30.388Z,11.23
2019-05-07T23:41:33.060Z,11.30
2019-05-07T23:46:35.332Z,11.33
2019-05-07T23:51:37.791Z,11.23
2019-05-07T23:56:42.470Z,11.15
